Time;durP1;ratioP1;P1;durP2;ratioP2;P2;SDS_P1;SDS_P2;PMS_P1;PMS_P2;Temp;Humidity;BMP_temperature;BMP_pressure;BME280_temperature;BME280_humidity;BME280_pressure;Samples;Min_cycle;Max_cycle;Signal;HPM_P1;HPM_P2
2022/11/08 00:01:50;;;;;;;58.67;24.35;;;15.10;60.90;;;;;;5040005;28;20134;-92
2022/11/08 00:04:17;;;;;;;58.40;21.60;;;14.80;61.30;;;;;;5038955;28;20080;-92
2022/11/08 00:14:58;;;;;;;76.47;24.92;;;14.30;62.10;;;;;;5037121;28;20505;-93
2022/11/08 00:17:27;;;;;;;91.63;27.60;;;14.20;62.30;;;;;;5036551;28;20033;-91
2022/11/08 00:19:53;;;;;;;92.03;28.35;;;14.10;62.20;;;;;;5036706;28;20026;-86
2022/11/08 00:22:19;;;;;;;96.55;28.42;;;13.90;62.40;;;;;;5042988;28;20028;-88
2022/11/08 00:24:45;;;;;;;77.88;27.70;;;13.80;62.60;;;;;;5078126;28;20060;-89
2022/11/08 00:27:15;;;;;;;87.60;27.73;;;13.80;62.60;;;;;;5078355;28;20024;-88
2022/11/08 00:29:41;;;;;;;53.60;25.17;;;13.80;62.60;;;;;;5079356;28;20531;-88
2022/11/08 00:32:10;;;;;;;48.85;23.02;;;13.90;62.40;;;;;;5077999;28;20024;-93
2022/11/08 00:34:35;;;;;;;73.35;26.42;;;13.90;62.50;;;;;;5077124;28;20028;-88
2022/11/08 00:37:02;;;;;;;35.33;20.67;;;14.00;62.70;;;;;;5081400;28;20032;-90
2022/11/08 00:39:28;;;;;;;33.50;19.33;;;14.10;62.10;;;;;;5034421;28;20037;-89
2022/11/08 00:41:54;;;;;;;57.65;19.58;;;14.30;61.80;;;;;;5030116;28;20034;-88
2022/11/08 00:44:19;;;;;;;88.90;23.88;;;14.40;61.30;;;;;;5059891;28;20055;-87
2022/11/08 00:46:45;;;;;;;74.50;20.30;;;14.40;61.40;;;;;;5054992;28;20035;-84
2022/11/08 00:49:11;;;;;;;57.13;18.50;;;14.20;61.50;;;;;;5054731;28;20033;-86
2022/11/08 00:51:37;;;;;;;123.18;21.58;;;14.10;61.50;;;;;;5046865;28;20051;-92
2022/11/08 00:54:06;;;;;;;59.45;20.10;;;14.20;61.90;;;;;;5039882;28;20037;-90
2022/11/08 00:56:33;;;;;;;67.25;17.15;;;14.20;61.60;;;;;;5043194;28;20040;-92
2022/11/08 00:58:59;;;;;;;42.03;18.98;;;14.30;61.10;;;;;;5036092;28;20029;-86
2022/11/08 01:01:25;;;;;;;56.08;19.08;;;14.40;61.30;;;;;;5047547;28;20528;-88
2022/11/08 01:03:52;;;;;;;63.88;21.80;;;14.40;61.90;;;;;;5054640;28;20025;-94
2022/11/08 01:06:19;;;;;;;65.68;18.40;;;14.40;61.20;;;;;;5054790;28;20119;-92
2022/11/08 01:08:45;;;;;;;47.03;18.27;;;14.60;60.80;;;;;;5054496;28;20087;-91
2022/11/08 01:11:21;;;;;;;43.95;17.67;;;14.70;60.70;;;;;;5050416;28;20021;-90
2022/11/08 01:13:47;;;;;;;46.78;17.60;;;14.70;60.60;;;;;;5047924;28;20024;-89
2022/11/08 01:16:19;;;;;;;36.90;17.38;;;14.50;60.70;;;;;;5054134;28;20416;-90
2022/11/08 01:18:46;;;;;;;31.80;15.60;;;14.50;61.00;;;;;;5054112;28;20434;-87
2022/11/08 01:21:12;;;;;;;50.03;16.27;;;14.50;60.80;;;;;;5040105;28;20025;-91
2022/11/08 01:23:38;;;;;;;34.15;16.40;;;14.50;60.90;;;;;;5053972;28;20020;-91
2022/11/08 01:26:07;;;;;;;58.15;16.50;;;14.60;61.00;;;;;;5050609;28;20029;-90
2022/11/08 01:28:34;;;;;;;34.95;15.05;;;14.50;61.20;;;;;;5037084;28;20048;-89
2022/11/08 01:31:12;;;;;;;98.05;17.70;;;14.20;61.60;;;;;;5049196;28;20480;-87
2022/11/08 01:33:39;;;;;;;36.13;15.57;;;14.00;62.20;;;;;;5050636;28;20034;-93
2022/11/08 01:36:06;;;;;;;47.95;15.30;;;13.90;62.50;;;;;;5049382;28;20032;-92
2022/11/08 01:38:32;;;;;;;33.63;13.80;;;14.00;62.80;;;;;;5054169;28;20495;-90
2022/11/08 01:40:58;;;;;;;50.10;16.38;;;14.20;62.70;;;;;;5052022;28;20025;-89
2022/11/08 01:43:44;;;;;;;80.30;17.13;;;14.30;62.00;;;;;;5035833;28;20041;-88
2022/11/08 01:46:28;;;;;;;92.65;19.20;;;14.50;61.80;;;;;;5052814;28;20501;-93
2022/11/08 01:49:21;;;;;;;51.33;16.38;;;14.60;62.00;;;;;;5041698;28;20033;-90
2022/11/08 01:51:58;;;;;;;61.40;15.93;;;14.70;61.40;;;;;;5068111;28;20032;-92
2022/11/08 01:54:34;;;;;;;39.65;14.45;;;14.60;61.20;;;;;;5035169;28;20048;-89
2022/11/08 01:57:01;;;;;;;66.00;16.85;;;14.30;62.10;;;;;;5044587;28;20492;-87
2022/11/08 01:59:28;;;;;;;36.92;14.52;;;14.20;62.70;;;;;;5052933;28;20424;-88
2022/11/08 02:01:55;;;;;;;42.90;15.25;;;14.30;62.40;;;;;;5051552;28;20461;-87
2022/11/08 02:04:21;;;;;;;45.78;14.32;;;14.40;61.90;;;;;;5052455;28;20469;-84
2022/11/08 02:06:47;;;;;;;36.75;13.77;;;14.50;61.30;;;;;;5056318;28;20037;-90
2022/11/08 02:09:16;;;;;;;39.90;14.10;;;14.40;61.30;;;;;;5056601;28;20024;-86
2022/11/08 02:11:45;;;;;;;24.38;12.27;;;14.20;61.70;;;;;;5056538;28;20075;-89
2022/11/08 02:14:11;;;;;;;42.63;13.77;;;14.00;62.60;;;;;;5056388;28;20039;-89
2022/11/08 02:16:37;;;;;;;72.05;15.10;;;14.00;62.50;;;;;;5056383;28;20532;-89
2022/11/08 02:19:04;;;;;;;88.75;15.45;;;14.00;63.00;;;;;;5052947;28;20189;-91
2022/11/08 02:21:40;;;;;;;106.78;16.98;;;14.00;62.80;;;;;;5052868;28;20037;-89
2022/11/08 02:24:11;;;;;;;53.72;14.20;;;14.00;62.50;;;;;;5052979;28;20384;-87
2022/11/08 02:26:38;;;;;;;109.45;16.80;;;14.20;62.10;;;;;;5052806;28;20382;-89
2022/11/08 02:29:24;;;;;;;29.30;13.73;;;14.20;61.90;;;;;;5052719;28;20033;-87
2022/11/08 02:31:50;;;;;;;43.65;14.30;;;14.20;62.10;;;;;;5052739;28;20021;-90
2022/11/08 02:34:16;;;;;;;85.70;18.38;;;14.40;61.60;;;;;;5053228;28;20035;-92
2022/11/08 02:36:45;;;;;;;55.88;15.30;;;14.50;61.60;;;;;;5052821;28;20032;-90
2022/11/08 02:39:10;;;;;;;44.22;14.07;;;14.60;61.40;;;;;;5053810;28;20017;-92
2022/11/08 02:41:36;;;;;;;38.45;12.65;;;14.60;61.40;;;;;;5040345;28;20026;-88
2022/11/08 02:44:02;;;;;;;23.85;11.63;;;14.60;61.30;;;;;;5032456;28;20027;-88
2022/11/08 02:46:27;;;;;;;33.95;12.75;;;14.60;61.10;;;;;;5041709;28;20504;-86
2022/11/08 02:48:53;;;;;;;23.25;11.52;;;14.60;61.20;;;;;;5052346;28;20155;-87
2022/11/08 02:51:19;;;;;;;33.63;11.50;;;14.70;60.80;;;;;;5051582;28;20459;-88
2022/11/08 02:53:44;;;;;;;44.08;14.00;;;14.70;60.30;;;;;;5052834;28;20032;-88
2022/11/08 02:56:10;;;;;;;25.85;11.18;;;14.60;61.10;;;;;;5052684;28;20033;-85
2022/11/08 02:58:36;;;;;;;47.85;14.25;;;14.50;61.10;;;;;;5048625;28;20466;-88
2022/11/08 03:01:02;;;;;;;44.47;12.98;;;14.40;61.10;;;;;;5043804;28;20025;-88
2022/11/08 03:03:27;;;;;;;40.75;13.95;;;14.20;61.80;;;;;;5052428;28;20482;-89
2022/11/08 03:05:55;;;;;;;38.17;13.43;;;14.20;62.10;;;;;;5049902;28;20028;-88
2022/11/08 03:08:21;;;;;;;44.28;12.98;;;14.20;61.80;;;;;;5052167;28;20032;-87
2022/11/08 03:10:46;;;;;;;53.00;13.10;;;14.10;62.20;;;;;;5053007;28;20033;-91
2022/11/08 03:13:12;;;;;;;34.35;12.48;;;14.10;62.30;;;;;;5045660;28;20057;-89
2022/11/08 03:15:38;;;;;;;48.58;12.90;;;14.10;62.30;;;;;;5037227;28;20037;-87
2022/11/08 03:18:04;;;;;;;31.75;13.73;;;14.20;62.00;;;;;;5047827;28;20083;-85
2022/11/08 03:20:30;;;;;;;42.60;13.18;;;14.20;62.00;;;;;;5048695;28;20025;-86
2022/11/08 03:23:05;;;;;;;36.25;12.90;;;14.30;61.90;;;;;;5052073;28;20764;-84
2022/11/08 03:25:31;;;;;;;30.65;12.82;;;14.50;61.80;;;;;;5052225;28;20067;-84
2022/11/08 03:28:03;;;;;;;35.42;13.05;;;14.50;61.90;;;;;;5048868;28;20029;-85
2022/11/08 03:30:29;;;;;;;60.40;13.25;;;14.40;61.80;;;;;;5032393;28;20035;-86
2022/11/08 03:32:54;;;;;;;42.33;13.48;;;14.50;61.80;;;;;;5032099;28;20029;-88
2022/11/08 03:35:20;;;;;;;19.48;12.02;;;14.60;61.80;;;;;;5032363;28;20043;-88
2022/11/08 03:37:53;;;;;;;30.02;14.13;;;14.60;61.40;;;;;;5033523;28;20028;-88
2022/11/08 03:40:20;;;;;;;71.32;14.38;;;14.60;61.50;;;;;;5051509;28;20056;-87
2022/11/08 03:42:46;;;;;;;35.95;14.13;;;14.70;61.60;;;;;;5052906;28;20021;-88
2022/11/08 03:45:12;;;;;;;27.65;12.63;;;14.70;61.90;;;;;;5055501;28;20040;-88
2022/11/08 03:47:40;;;;;;;40.00;12.13;;;14.70;62.50;;;;;;5055280;28;20024;-89
2022/11/08 03:50:06;;;;;;;30.73;11.88;;;14.70;61.90;;;;;;5055900;28;20031;-89
2022/11/08 03:52:47;;;;;;;49.75;13.40;;;14.80;61.90;;;;;;5054984;28;20089;-88
2022/11/08 03:55:12;;;;;;;57.47;13.07;;;14.90;61.40;;;;;;5038462;28;20033;-90
2022/11/08 03:57:43;;;;;;;45.45;13.82;;;15.00;61.30;;;;;;5045793;28;20030;-88
2022/11/08 04:00:11;;;;;;;36.88;13.00;;;14.90;61.30;;;;;;5049628;28;20053;-86
2022/11/08 04:02:38;;;;;;;39.58;14.77;;;14.80;61.80;;;;;;5054218;28;20469;-90
2022/11/08 04:05:05;;;;;;;38.00;13.35;;;14.80;62.00;;;;;;5043689;28;20032;-88
2022/11/08 04:07:31;;;;;;;28.20;12.32;;;14.90;61.50;;;;;;5035326;28;20025;-89
2022/11/08 04:09:57;;;;;;;22.13;11.60;;;14.90;61.30;;;;;;5036997;28;20099;-88
2022/11/08 04:15:15;;;;;;;34.92;14.75;;;15.10;61.20;;;;;;5056747;28;20053;-88
2022/11/08 04:23:17;;;;;;;45.03;15.60;;;15.10;60.90;;;;;;5042751;28;20537;-85
2022/11/08 04:25:43;;;;;;;24.02;14.23;;;15.00;61.80;;;;;;5044896;28;20033;-85
2022/11/08 04:28:09;;;;;;;43.58;15.52;;;14.90;62.10;;;;;;5055032;28;20025;-84
2022/11/08 04:30:36;;;;;;;41.38;14.20;;;14.90;62.20;;;;;;5054234;28;20051;-87
2022/11/08 04:33:03;;;;;;;43.63;15.27;;;14.80;62.20;;;;;;5043801;28;20079;-91
2022/11/08 04:35:30;;;;;;;36.03;15.60;;;14.40;62.50;;;;;;5055204;28;20041;-87
2022/11/08 04:38:00;;;;;;;27.55;13.85;;;13.90;64.00;;;;;;5054866;28;20025;-87
2022/11/08 04:40:27;;;;;;;32.63;15.45;;;14.00;63.80;;;;;;5055102;28;20025;-87
2022/11/08 04:42:52;;;;;;;43.95;16.33;;;14.20;63.50;;;;;;5051282;28;20532;-85
2022/11/08 04:45:18;;;;;;;50.67;17.80;;;14.20;62.80;;;;;;5052641;28;20052;-86
2022/11/08 04:47:47;;;;;;;57.83;17.67;;;14.30;63.20;;;;;;5054066;28;20504;-85
2022/11/08 04:50:14;;;;;;;56.72;19.23;;;14.30;63.10;;;;;;5049741;28;20025;-86
2022/11/08 04:52:40;;;;;;;44.92;17.52;;;14.30;63.30;;;;;;5045559;28;20029;-89
2022/11/08 04:55:06;;;;;;;35.70;15.65;;;13.60;64.20;;;;;;5054551;28;20036;-86
2022/11/08 04:57:32;;;;;;;29.73;15.38;;;13.00;66.30;;;;;;5050760;28;20022;-90
2022/11/08 04:59:58;;;;;;;28.08;15.18;;;13.00;66.60;;;;;;5034703;28;20036;-89
2022/11/08 05:02:24;;;;;;;49.30;18.55;;;12.90;66.90;;;;;;5052274;28;20078;-89
2022/11/08 05:04:49;;;;;;;37.17;17.88;;;13.20;66.60;;;;;;5053970;28;20119;-88
2022/11/08 05:07:15;;;;;;;27.15;18.05;;;13.20;66.60;;;;;;5051532;28;20036;-86
2022/11/08 05:09:41;;;;;;;43.58;20.77;;;12.70;67.50;;;;;;5034321;28;20029;-87
2022/11/08 05:12:06;;;;;;;50.65;19.98;;;12.60;68.00;;;;;;5049646;28;20104;-87
2022/11/08 05:14:32;;;;;;;53.15;20.80;;;12.60;68.40;;;;;;5034109;28;20049;-85
2022/11/08 05:16:58;;;;;;;55.60;19.30;;;12.70;68.20;;;;;;5034251;28;20112;-85
2022/11/08 05:24:52;;;;;;;23.42;14.40;;;14.20;64.20;;;;;;5053232;28;20040;-86
2022/11/08 05:27:18;;;;;;;33.05;16.25;;;14.30;63.70;;;;;;5054012;28;20029;-85
2022/11/08 05:29:44;;;;;;;24.70;13.27;;;14.20;63.80;;;;;;5049957;28;20155;-85
2022/11/08 05:32:10;;;;;;;17.67;12.00;;;13.90;63.60;;;;;;5033969;28;20363;-88
2022/11/08 05:34:35;;;;;;;20.08;11.70;;;13.30;65.40;;;;;;5038776;28;20037;-88
2022/11/08 05:37:01;;;;;;;28.13;14.05;;;13.00;66.00;;;;;;5053465;28;20032;-87
2022/11/08 05:39:27;;;;;;;22.25;13.55;;;12.50;67.60;;;;;;5048690;28;20029;-85
2022/11/08 05:41:53;;;;;;;24.50;15.30;;;12.50;68.90;;;;;;5033707;28;20359;-85
2022/11/08 05:44:18;;;;;;;42.65;15.57;;;12.70;67.90;;;;;;5033679;28;20041;-84
2022/11/08 05:46:44;;;;;;;28.17;15.95;;;12.60;67.00;;;;;;5062727;28;20032;-88
2022/11/08 05:49:09;;;;;;;36.42;21.30;;;12.50;68.30;;;;;;5073939;28;20107;-89
2022/11/08 05:51:35;;;;;;;27.20;16.08;;;12.70;67.80;;;;;;5073426;28;20024;-87
2022/11/08 05:54:01;;;;;;;31.20;19.73;;;12.80;67.60;;;;;;5060580;28;20025;-87
2022/11/08 05:56:27;;;;;;;21.85;14.13;;;12.80;66.10;;;;;;5053748;28;20038;-85
2022/11/08 05:58:55;;;;;;;24.83;14.45;;;12.50;68.10;;;;;;5053031;28;20033;-88
2022/11/08 06:01:21;;;;;;;43.70;26.10;;;12.80;66.50;;;;;;5053042;28;20029;-86
2022/11/08 06:03:47;;;;;;;32.97;22.75;;;13.00;66.80;;;;;;5052553;28;20066;-83
2022/11/08 06:06:17;;;;;;;25.90;16.75;;;13.30;66.00;;;;;;5050149;28;20026;-85
2022/11/08 06:08:43;;;;;;;25.20;15.20;;;13.60;64.90;;;;;;5039327;28;20032;-85
2022/11/08 06:11:14;;;;;;;20.13;14.32;;;13.70;64.60;;;;;;5052861;28;20028;-87
2022/11/08 06:13:47;;;;;;;20.08;13.18;;;13.30;64.30;;;;;;5035066;28;20430;-86
2022/11/08 06:16:14;;;;;;;30.70;15.40;;;12.80;66.70;;;;;;5036791;28;20309;-84
2022/11/08 06:18:41;;;;;;;30.63;18.00;;;12.30;67.90;;;;;;5052861;28;20469;-84
2022/11/08 06:21:10;;;;;;;37.35;18.00;;;12.10;69.20;;;;;;5052645;28;20028;-88
2022/11/08 06:23:36;;;;;;;32.17;17.65;;;12.30;68.70;;;;;;5053479;28;20024;-84
2022/11/08 06:26:02;;;;;;;30.17;16.95;;;12.20;69.50;;;;;;5052398;28;20051;-82
2022/11/08 06:28:28;;;;;;;50.85;23.13;;;12.50;68.60;;;;;;5052956;28;20029;-85
2022/11/08 06:30:53;;;;;;;51.28;27.38;;;12.80;67.90;;;;;;5052737;28;20037;-84
2022/11/08 06:33:20;;;;;;;54.90;26.55;;;13.30;67.30;;;;;;5052463;28;20437;-83
2022/11/08 06:35:46;;;;;;;54.50;27.45;;;13.30;66.90;;;;;;5039255;28;20045;-90
2022/11/08 06:38:12;;;;;;;51.78;20.88;;;13.10;66.50;;;;;;5051955;28;20040;-83
2022/11/08 06:40:38;;;;;;;74.60;23.90;;;12.60;68.10;;;;;;5052594;28;20033;-81
2022/11/08 06:43:04;;;;;;;39.83;22.25;;;12.20;69.20;;;;;;5052140;28;20021;-85
2022/11/08 06:45:30;;;;;;;59.35;22.20;;;11.60;70.60;;;;;;5052194;28;20732;-87
2022/11/08 06:47:57;;;;;;;48.47;22.67;;;11.40;72.40;;;;;;5052137;28;20031;-83
2022/11/08 06:50:23;;;;;;;49.63;21.80;;;11.30;73.20;;;;;;5051770;28;20363;-83
2022/11/08 06:52:58;;;;;;;38.95;20.25;;;12.00;72.20;;;;;;5051944;28;20033;-82
2022/11/08 06:55:24;;;;;;;55.58;27.70;;;12.90;69.30;;;;;;5052120;28;20103;-83
2022/11/08 06:57:50;;;;;;;58.92;23.33;;;13.40;67.40;;;;;;5053956;28;20457;-83
2022/11/08 07:00:16;;;;;;;46.08;26.48;;;13.90;66.30;;;;;;5051768;28;20044;-84
2022/11/08 07:02:43;;;;;;;62.75;29.90;;;14.20;65.20;;;;;;5045471;28;20029;-83
2022/11/08 07:05:09;;;;;;;56.85;23.48;;;14.40;64.40;;;;;;5051714;28;20029;-85
2022/11/08 07:07:35;;;;;;;46.97;25.45;;;14.50;63.90;;;;;;5044281;28;20072;-83
2022/11/08 07:10:01;;;;;;;43.60;22.60;;;14.40;64.50;;;;;;5033549;28;20025;-83
2022/11/08 07:12:26;;;;;;;34.17;21.50;;;14.40;63.80;;;;;;5052419;28;20032;-83
2022/11/08 07:14:52;;;;;;;50.75;24.02;;;14.40;63.90;;;;;;5051985;28;20128;-85
2022/11/08 07:17:18;;;;;;;44.20;23.02;;;14.50;63.50;;;;;;5054344;28;20059;-86
2022/11/08 07:19:43;;;;;;;47.80;21.83;;;14.60;63.60;;;;;;5056008;28;20094;-82
2022/11/08 07:22:09;;;;;;;35.65;19.45;;;14.10;64.60;;;;;;5055902;28;20025;-91
2022/11/08 07:24:35;;;;;;;28.75;18.27;;;13.80;64.60;;;;;;5052190;28;20029;-84
2022/11/08 07:27:00;;;;;;;31.90;19.08;;;13.30;65.90;;;;;;5056248;28;20025;-85
2022/11/08 07:29:26;;;;;;;35.25;19.38;;;13.00;67.20;;;;;;5055720;28;20070;-88
2022/11/08 07:31:52;;;;;;;28.83;18.48;;;12.80;67.00;;;;;;5055825;28;20036;-84
2022/11/08 07:34:17;;;;;;;30.83;19.45;;;12.70;68.30;;;;;;5044902;28;20037;-87
2022/11/08 07:36:43;;;;;;;34.15;19.00;;;12.70;68.10;;;;;;5056199;28;20029;-86
2022/11/08 07:39:09;;;;;;;46.10;20.58;;;13.00;67.80;;;;;;5051024;28;20553;-84
2022/11/08 07:41:35;;;;;;;35.60;21.55;;;13.00;67.50;;;;;;5040717;28;20041;-85
2022/11/08 07:44:00;;;;;;;47.22;22.55;;;12.90;68.20;;;;;;5045877;28;20024;-84
2022/11/08 07:46:26;;;;;;;31.20;21.25;;;13.00;68.30;;;;;;5066260;28;20029;-82
2022/11/08 07:48:52;;;;;;;32.65;21.58;;;13.20;68.10;;;;;;5052116;28;20500;-83
2022/11/08 07:51:17;;;;;;;38.10;22.08;;;13.20;68.60;;;;;;5055061;28;20024;-81
2022/11/08 07:53:43;;;;;;;39.60;21.90;;;13.40;67.60;;;;;;5047909;28;20029;-87
2022/11/08 07:56:09;;;;;;;38.72;21.75;;;13.60;67.10;;;;;;5053705;28;20025;-86
2022/11/08 07:58:35;;;;;;;41.00;24.27;;;13.40;66.90;;;;;;5054241;28;20063;-83
2022/11/08 08:01:05;;;;;;;45.83;24.65;;;12.90;69.30;;;;;;5054324;28;20057;-84
2022/11/08 08:03:31;;;;;;;50.13;25.60;;;13.30;68.60;;;;;;5051930;28;20060;-82
2022/11/08 08:05:57;;;;;;;37.80;22.52;;;14.00;66.80;;;;;;5055092;28;20060;-83
2022/11/08 08:08:23;;;;;;;38.92;22.63;;;14.50;65.30;;;;;;5052611;28;20040;-84
2022/11/08 08:10:49;;;;;;;40.35;23.65;;;14.10;65.90;;;;;;5055161;28;20013;-85
2022/11/08 08:13:15;;;;;;;36.63;22.27;;;13.40;68.50;;;;;;5055367;28;20083;-90
2022/11/08 08:15:41;;;;;;;35.13;22.52;;;13.40;67.60;;;;;;5054777;28;20121;-85
2022/11/08 08:18:08;;;;;;;36.65;22.33;;;13.30;68.70;;;;;;5055395;28;20029;-85
2022/11/08 08:20:34;;;;;;;38.72;22.15;;;13.80;67.70;;;;;;5054818;28;20033;-81
2022/11/08 08:23:00;;;;;;;37.08;20.40;;;14.30;65.70;;;;;;5054659;28;20055;-85
2022/11/08 08:25:27;;;;;;;31.73;20.67;;;13.90;66.20;;;;;;5055225;28;20115;-86
2022/11/08 08:27:55;;;;;;;37.78;23.83;;;13.60;67.10;;;;;;5054856;28;20025;-86
2022/11/08 08:30:22;;;;;;;36.95;23.35;;;13.20;68.60;;;;;;5054724;28;20024;-89
2022/11/08 08:32:48;;;;;;;36.22;21.88;;;13.00;68.80;;;;;;5054820;28;20380;-90
2022/11/08 08:35:14;;;;;;;33.83;20.98;;;12.90;69.80;;;;;;5057129;28;20405;-87
2022/11/08 08:37:40;;;;;;;34.28;20.15;;;12.90;69.20;;;;;;5075186;28;20473;-88
2022/11/08 08:40:07;;;;;;;30.70;18.88;;;12.80;68.70;;;;;;5074777;28;20469;-86
2022/11/08 08:42:33;;;;;;;40.17;19.95;;;12.50;69.60;;;;;;5057012;28;20021;-84
2022/11/08 08:44:59;;;;;;;32.67;19.38;;;12.20;70.40;;;;;;5054650;28;20052;-84
2022/11/08 08:47:26;;;;;;;39.30;22.85;;;12.20;71.80;;;;;;5044475;28;20037;-81
2022/11/08 08:49:51;;;;;;;36.20;20.48;;;12.30;72.10;;;;;;5060850;28;20083;-85
2022/11/08 08:52:17;;;;;;;40.50;22.33;;;12.30;71.70;;;;;;5056797;28;20032;-85
2022/11/08 08:54:43;;;;;;;40.13;23.58;;;12.30;72.40;;;;;;5053008;28;20138;-84
2022/11/08 08:57:09;;;;;;;37.70;22.83;;;12.60;71.50;;;;;;5053124;28;20021;-88
2022/11/08 08:59:35;;;;;;;37.15;22.13;;;13.10;70.20;;;;;;5035161;28;20029;-82
2022/11/08 09:02:00;;;;;;;37.97;21.55;;;13.30;70.10;;;;;;5036104;28;20028;-88
2022/11/08 09:04:27;;;;;;;38.40;20.77;;;13.10;70.00;;;;;;5034582;28;20029;-85
2022/11/08 09:06:53;;;;;;;38.88;21.02;;;13.30;70.00;;;;;;5042364;28;20164;-85
2022/11/08 09:09:19;;;;;;;39.15;20.38;;;13.40;69.60;;;;;;5041248;28;20043;-89
2022/11/08 09:11:45;;;;;;;36.33;19.50;;;13.50;68.90;;;;;;5043043;28;20025;-82
2022/11/08 09:14:11;;;;;;;47.97;24.70;;;13.40;69.70;;;;;;5046739;28;20024;-85
2022/11/08 09:16:36;;;;;;;35.15;19.63;;;13.90;69.60;;;;;;5053148;28;20021;-89
2022/11/08 09:19:04;;;;;;;39.47;19.77;;;13.90;68.50;;;;;;5053830;28;20021;-84
2022/11/08 09:21:36;;;;;;;28.13;16.70;;;13.70;68.80;;;;;;5053714;28;20029;-90
2022/11/08 09:24:01;;;;;;;31.65;17.33;;;13.20;69.50;;;;;;5044573;28;20028;-85
2022/11/08 09:26:27;;;;;;;37.08;15.98;;;13.00;72.10;;;;;;5053901;28;20028;-86
2022/11/08 09:28:53;;;;;;;35.50;18.33;;;13.30;70.50;;;;;;5048843;28;20033;-87
2022/11/08 09:31:18;;;;;;;36.65;18.33;;;13.50;70.10;;;;;;5053894;28;20025;-86
2022/11/08 09:33:44;;;;;;;37.35;17.20;;;13.40;71.30;;;;;;5052922;28;20021;-86
2022/11/08 09:36:12;;;;;;;36.30;18.52;;;13.30;71.40;;;;;;5048515;28;20044;-84
2022/11/08 09:38:38;;;;;;;35.83;18.90;;;13.50;70.80;;;;;;5044210;28;20168;-87
2022/11/08 09:41:16;;;;;;;39.60;19.73;;;13.60;69.80;;;;;;5045921;28;20127;-85
2022/11/08 09:43:51;;;;;;;39.65;19.05;;;13.60;71.10;;;;;;5044546;28;20033;-87
2022/11/08 09:46:49;;;;;;;36.92;16.98;;;14.10;69.40;;;;;;5050787;28;20044;-86
2022/11/08 09:49:46;;;;;;;40.70;20.10;;;13.70;69.80;;;;;;5043378;28;20139;-88
2022/11/08 09:52:23;;;;;;;34.47;17.52;;;13.60;71.10;;;;;;4994611;28;20042;-81
2022/11/08 09:54:52;;;;;;;40.42;19.73;;;13.90;69.20;;;;;;4980423;28;20125;-88
2022/11/08 09:57:31;;;;;;;39.60;19.08;;;13.90;70.80;;;;;;5014864;28;20418;-87
2022/11/08 10:00:09;;;;;;;46.05;21.55;;;14.50;69.80;;;;;;5012141;28;20034;-88
2022/11/08 10:02:35;;;;;;;51.30;22.70;;;15.00;67.60;;;;;;4996311;28;20125;-87
2022/11/08 10:05:14;;;;;;;40.15;19.70;;;15.40;66.70;;;;;;4996433;28;20116;-87
2022/11/08 10:07:40;;;;;;;43.85;21.65;;;14.70;67.40;;;;;;4996046;28;20022;-88
2022/11/08 10:10:33;;;;;;;39.17;19.95;;;14.80;68.60;;;;;;4996674;28;20038;-89
2022/11/08 10:13:12;;;;;;;45.67;20.00;;;14.90;67.60;;;;;;5000330;28;20026;-85
2022/11/08 10:15:51;;;;;;;46.80;21.13;;;14.60;68.50;;;;;;4995178;28;20143;-86
2022/11/08 10:18:41;;;;;;;43.72;22.23;;;14.40;69.30;;;;;;4990939;28;20025;-89
2022/11/08 10:21:14;;;;;;;38.90;20.40;;;14.30;69.40;;;;;;4995644;28;20084;-90
2022/11/08 10:23:48;;;;;;;38.05;19.52;;;14.00;69.60;;;;;;5012087;28;20029;-88
2022/11/08 10:26:28;;;;;;;40.50;21.80;;;14.00;70.80;;;;;;5012282;28;20038;-87
2022/11/08 10:29:05;;;;;;;38.15;19.73;;;14.20;69.70;;;;;;5031499;28;20045;-86
2022/11/08 10:31:34;;;;;;;37.92;19.75;;;14.40;69.90;;;;;;5052623;28;20024;-85
2022/11/08 10:34:02;;;;;;;39.75;21.42;;;14.00;69.30;;;;;;5052761;28;20123;-85
2022/11/08 10:36:33;;;;;;;43.63;21.95;;;13.40;72.10;;;;;;5053930;28;20029;-86
2022/11/08 10:39:08;;;;;;;47.30;22.58;;;13.50;72.90;;;;;;5052370;28;20017;-84
2022/11/08 10:41:43;;;;;;;47.92;23.65;;;14.10;71.00;;;;;;5052432;28;20477;-88
2022/11/08 10:44:14;;;;;;;49.35;23.17;;;14.90;68.70;;;;;;5052383;28;20068;-87
2022/11/08 10:46:43;;;;;;;44.55;23.08;;;15.50;67.10;;;;;;5052597;28;20051;-84
2022/11/08 10:49:19;;;;;;;48.00;23.65;;;15.30;67.80;;;;;;5052515;28;20543;-87
2022/11/08 10:51:48;;;;;;;45.67;23.02;;;15.30;68.10;;;;;;5052027;28;20032;-88
2022/11/08 10:54:41;;;;;;;48.03;24.27;;;15.20;66.70;;;;;;5053373;28;20025;-83
2022/11/08 10:57:09;;;;;;;54.97;24.88;;;15.40;68.60;;;;;;5052199;28;20025;-86
2022/11/08 10:59:35;;;;;;;50.28;24.88;;;15.60;67.90;;;;;;5052252;28;20082;-82
2022/11/08 11:02:01;;;;;;;53.65;26.13;;;15.90;66.50;;;;;;5053234;28;20031;-91
2022/11/08 11:04:30;;;;;;;50.95;24.67;;;16.20;66.10;;;;;;5052140;28;20033;-86
2022/11/08 11:07:23;;;;;;;53.30;25.95;;;16.40;65.40;;;;;;5052311;28;20021;-89
2022/11/08 11:09:48;;;;;;;58.53;26.92;;;16.40;65.30;;;;;;5052165;28;20017;-85
2022/11/08 11:12:14;;;;;;;48.47;25.25;;;16.20;66.50;;;;;;5054023;28;20428;-83
2022/11/08 11:14:40;;;;;;;48.97;26.77;;;15.80;66.20;;;;;;5053239;28;20037;-87
2022/11/08 11:17:17;;;;;;;56.92;26.02;;;15.10;67.90;;;;;;5052116;28;20021;-85
2022/11/08 11:19:52;;;;;;;52.17;26.42;;;14.40;70.80;;;;;;5052511;28;20111;-92
2022/11/08 11:22:38;;;;;;;60.22;27.77;;;14.40;71.00;;;;;;5053234;28;20029;-92
2022/11/08 11:25:12;;;;;;;54.78;27.02;;;14.50;70.50;;;;;;5052322;28;20120;-88
2022/11/08 11:27:41;;;;;;;52.25;27.10;;;14.60;70.40;;;;;;5055633;28;20465;-89
2022/11/08 11:30:29;;;;;;;64.32;29.40;;;14.30;71.20;;;;;;5054782;28;20432;-95
2022/11/08 11:33:00;;;;;;;62.72;31.42;;;13.90;72.70;;;;;;5052856;28;20079;-85
2022/11/08 11:35:34;;;;;;;60.65;29.65;;;13.80;74.60;;;;;;5055174;28;20041;-84
2022/11/08 11:38:04;;;;;;;59.20;28.20;;;13.70;75.00;;;;;;5053424;28;20153;-88
2022/11/08 11:40:42;;;;;;;62.95;29.17;;;13.90;73.90;;;;;;5052762;28;20402;-86
2022/11/08 11:43:35;;;;;;;70.43;31.48;;;14.10;74.20;;;;;;5052100;28;20029;-83
2022/11/08 11:46:25;;;;;;;66.40;31.13;;;14.60;71.80;;;;;;5051771;28;20057;-86
2022/11/08 11:49:03;;;;;;;66.43;30.63;;;14.90;70.90;;;;;;5051723;28;20043;-85
2022/11/08 11:51:29;;;;;;;63.88;29.92;;;15.30;69.50;;;;;;5052035;28;20036;-90
2022/11/08 11:53:57;;;;;;;65.22;31.13;;;15.40;70.00;;;;;;5052025;28;20021;-87
2022/11/08 11:56:28;;;;;;;63.58;31.17;;;15.20;70.30;;;;;;5051890;28;20040;-88
2022/11/08 11:59:18;;;;;;;60.50;30.77;;;15.40;70.30;;;;;;5052421;28;20033;-87
2022/11/08 12:01:58;;;;;;;65.13;30.52;;;15.50;69.60;;;;;;5051771;28;20021;-91
2022/11/08 12:04:36;;;;;;;70.55;31.67;;;15.80;69.50;;;;;;5054077;28;20025;-87
2022/11/08 12:07:26;;;;;;;67.57;32.22;;;16.30;68.20;;;;;;5056332;28;20482;-89
2022/11/08 12:10:12;;;;;;;79.63;35.33;;;16.70;67.50;;;;;;5055057;28;20029;-90
2022/11/08 12:13:16;;;;;;;72.72;33.50;;;17.20;65.90;;;;;;5056914;28;20428;-88
2022/11/08 12:16:00;;;;;;;68.70;32.78;;;16.80;67.10;;;;;;4978786;28;20483;-85
2022/11/08 12:19:10;;;;;;;70.72;33.28;;;17.10;66.00;;;;;;4978600;28;20057;-88
2022/11/08 12:22:00;;;;;;;70.50;32.67;;;17.40;65.50;;;;;;4936864;29;20036;-84
2022/11/08 12:24:50;;;;;;;74.20;34.60;;;17.60;64.90;;;;;;4937939;29;20058;-89
2022/11/08 12:27:33;;;;;;;73.35;33.75;;;17.50;65.50;;;;;;4936638;29;20032;-86
2022/11/08 12:30:12;;;;;;;67.13;34.97;;;17.30;65.70;;;;;;4937029;29;20040;-89
2022/11/08 12:32:53;;;;;;;63.90;33.85;;;17.30;66.60;;;;;;4937659;29;20115;-81
2022/11/08 12:35:39;;;;;;;68.97;33.35;;;17.40;66.10;;;;;;4936670;29;20062;-85
2022/11/08 12:38:11;;;;;;;61.95;32.17;;;17.60;65.80;;;;;;4899517;29;20477;-88
2022/11/08 12:41:00;;;;;;;68.30;33.28;;;17.80;64.80;;;;;;4884522;29;20068;-89
2022/11/08 12:43:29;;;;;;;67.07;37.42;;;17.40;66.20;;;;;;4887446;29;20033;-93
2022/11/08 12:46:05;;;;;;;70.70;37.15;;;16.70;67.40;;;;;;4900866;29;20048;-88
2022/11/08 12:49:13;;;;;;;74.40;35.85;;;16.10;68.70;;;;;;4884975;29;20072;-91
2022/11/08 12:51:54;;;;;;;66.43;34.25;;;15.30;71.50;;;;;;4887969;29;20036;-91
2022/11/08 12:54:36;;;;;;;66.30;32.30;;;15.20;72.30;;;;;;4903571;29;20032;-84
2022/11/08 12:57:12;;;;;;;64.15;32.72;;;15.50;72.00;;;;;;4911099;29;20032;-89
2022/11/08 12:59:42;;;;;;;69.10;33.88;;;15.60;71.40;;;;;;4967335;28;20527;-91
2022/11/08 13:02:16;;;;;;;66.57;34.53;;;15.60;72.50;;;;;;4954888;28;20035;-92